Cartagena, Spain
Current Conditions -  °F | °C
As of 11:00 PM on Sunday 19 Oct 2014 (Local Time) from LELC Reporting Station
Few Clouds Few Clouds  
Wind Chill: 68°   Ceiling: Unl
Heat Index: 68°   Visibility: 6mi
Dew Point: 66°   Wind: 1mph
Humidity: 94%   Direction: NA
Pressure: 30.18"   Gusts: NA
Location:  37.61°N, 0.99°W
Report Text: LELC 192100Z VRB01KT 9000 FEW008 20/19 Q1022 NOSIG
Loading
Personal Weather Stations






























Interactive Weather Map
Tropical Storm Tracking
New forecast layout! Learn more

10-Day Weather Forecast

Advertisements
Track Severe Weather on mobile